Terminal Aerodrome Forecast
Issued by NWS Austin/San Antonio, TX

Home | Current Version | Previous Version | Text Only | Print | Product List | Glossary On
Versions: 1 2 3 4 5 6 7 8 9 10 11 12 13 14 15 16 17 18 19 20 21 22 23 24 25 26 27
000
FTUS44 KEWX 291005 AAD
TAFSAT
TAF AMD
KSAT 291005Z 2910/3012 10014KT P6SM -RA BKN070 OVC100
     FM291200 15007KT P6SM BKN012 OVC070
     FM291600 15010KT P6SM BKN025 BKN070
     FM291900 15012KT P6SM BKN040
     FM300300 16008KT P6SM OVC012=

USA.gov is the U.S. government's official web portal to all federal, state and local government web resources and services.